sensor_id;sensor_type;location;lat;lon;timestamp;P1;durP1;ratioP1;P2;durP2;ratioP2
11907;SDS011;6014;47.690;9.130;2022-12-07T00:01:46;26.73;;;15.17;;
11907;SDS011;6014;47.690;9.130;2022-12-07T00:04:16;32.40;;;14.53;;
11907;SDS011;6014;47.690;9.130;2022-12-07T00:06:47;25.97;;;13.87;;
11907;SDS011;6014;47.690;9.130;2022-12-07T00:09:20;23.73;;;13.17;;
11907;SDS011;6014;47.690;9.130;2022-12-07T00:11:49;22.80;;;12.83;;
11907;SDS011;6014;47.690;9.130;2022-12-07T00:14:21;24.73;;;13.90;;
11907;SDS011;6014;47.690;9.130;2022-12-07T00:16:50;21.17;;;13.53;;
11907;SDS011;6014;47.690;9.130;2022-12-07T00:19:20;20.73;;;12.23;;
11907;SDS011;6014;47.690;9.130;2022-12-07T00:21:48;19.70;;;12.47;;
11907;SDS011;6014;47.690;9.130;2022-12-07T00:24:17;20.40;;;12.03;;
11907;SDS011;6014;47.690;9.130;2022-12-07T00:26:45;21.73;;;12.83;;
11907;SDS011;6014;47.690;9.130;2022-12-07T00:29:15;21.00;;;12.70;;
11907;SDS011;6014;47.690;9.130;2022-12-07T00:31:47;19.57;;;12.40;;
11907;SDS011;6014;47.690;9.130;2022-12-07T00:34:17;21.20;;;12.63;;
11907;SDS011;6014;47.690;9.130;2022-12-07T00:36:49;19.33;;;10.60;;
11907;SDS011;6014;47.690;9.130;2022-12-07T00:39:18;21.87;;;11.63;;
11907;SDS011;6014;47.690;9.130;2022-12-07T00:41:46;22.33;;;13.17;;
11907;SDS011;6014;47.690;9.130;2022-12-07T00:44:15;19.60;;;11.43;;
11907;SDS011;6014;47.690;9.130;2022-12-07T00:46:43;21.27;;;11.93;;
11907;SDS011;6014;47.690;9.130;2022-12-07T00:49:14;20.97;;;12.53;;
11907;SDS011;6014;47.690;9.130;2022-12-07T00:51:43;22.93;;;13.43;;
11907;SDS011;6014;47.690;9.130;2022-12-07T00:54:12;26.13;;;13.73;;
11907;SDS011;6014;47.690;9.130;2022-12-07T00:56:40;21.60;;;12.67;;
11907;SDS011;6014;47.690;9.130;2022-12-07T00:59:10;22.93;;;12.13;;
11907;SDS011;6014;47.690;9.130;2022-12-07T01:01:41;22.63;;;12.07;;
11907;SDS011;6014;47.690;9.130;2022-12-07T01:04:09;22.83;;;12.23;;
11907;SDS011;6014;47.690;9.130;2022-12-07T01:06:39;17.30;;;10.37;;
11907;SDS011;6014;47.690;9.130;2022-12-07T01:09:08;23.43;;;12.90;;
11907;SDS011;6014;47.690;9.130;2022-12-07T01:11:36;18.00;;;10.17;;
11907;SDS011;6014;47.690;9.130;2022-12-07T01:14:04;22.47;;;12.80;;
11907;SDS011;6014;47.690;9.130;2022-12-07T01:16:33;22.27;;;12.47;;
11907;SDS011;6014;47.690;9.130;2022-12-07T01:19:02;22.43;;;12.27;;
11907;SDS011;6014;47.690;9.130;2022-12-07T01:21:32;22.93;;;12.30;;
11907;SDS011;6014;47.690;9.130;2022-12-07T01:24:06;23.20;;;12.47;;
11907;SDS011;6014;47.690;9.130;2022-12-07T01:26:37;24.57;;;14.40;;
11907;SDS011;6014;47.690;9.130;2022-12-07T01:29:07;21.90;;;12.37;;
11907;SDS011;6014;47.690;9.130;2022-12-07T01:31:36;23.83;;;13.37;;
11907;SDS011;6014;47.690;9.130;2022-12-07T01:34:04;20.17;;;12.77;;
11907;SDS011;6014;47.690;9.130;2022-12-07T01:36:34;18.13;;;11.33;;
11907;SDS011;6014;47.690;9.130;2022-12-07T01:39:04;25.60;;;13.20;;
11907;SDS011;6014;47.690;9.130;2022-12-07T01:41:36;20.43;;;11.73;;
11907;SDS011;6014;47.690;9.130;2022-12-07T01:44:11;24.63;;;13.30;;
11907;SDS011;6014;47.690;9.130;2022-12-07T01:46:46;23.60;;;12.77;;
11907;SDS011;6014;47.690;9.130;2022-12-07T01:49:25;21.43;;;12.50;;
11907;SDS011;6014;47.690;9.130;2022-12-07T01:52:07;20.27;;;12.23;;
11907;SDS011;6014;47.690;9.130;2022-12-07T01:54:46;21.03;;;12.40;;
11907;SDS011;6014;47.690;9.130;2022-12-07T01:57:17;21.60;;;12.90;;
11907;SDS011;6014;47.690;9.130;2022-12-07T01:59:47;20.87;;;12.40;;
11907;SDS011;6014;47.690;9.130;2022-12-07T02:02:19;22.67;;;13.23;;
11907;SDS011;6014;47.690;9.130;2022-12-07T02:04:51;19.17;;;11.80;;
11907;SDS011;6014;47.690;9.130;2022-12-07T02:07:21;22.23;;;12.90;;
11907;SDS011;6014;47.690;9.130;2022-12-07T02:09:52;23.53;;;12.97;;
11907;SDS011;6014;47.690;9.130;2022-12-07T02:12:20;22.70;;;12.63;;
11907;SDS011;6014;47.690;9.130;2022-12-07T02:14:51;21.83;;;13.17;;
11907;SDS011;6014;47.690;9.130;2022-12-07T02:17:21;20.50;;;12.03;;
11907;SDS011;6014;47.690;9.130;2022-12-07T02:20:05;20.30;;;11.83;;
11907;SDS011;6014;47.690;9.130;2022-12-07T02:26:09;24.80;;;13.00;;
11907;SDS011;6014;47.690;9.130;2022-12-07T02:29:08;21.63;;;13.70;;
11907;SDS011;6014;47.690;9.130;2022-12-07T02:31:43;26.97;;;14.43;;
11907;SDS011;6014;47.690;9.130;2022-12-07T02:34:21;20.93;;;13.03;;
11907;SDS011;6014;47.690;9.130;2022-12-07T02:37:05;22.17;;;13.27;;
11907;SDS011;6014;47.690;9.130;2022-12-07T02:39:40;23.93;;;14.53;;
11907;SDS011;6014;47.690;9.130;2022-12-07T02:42:14;26.60;;;14.73;;
11907;SDS011;6014;47.690;9.130;2022-12-07T02:44:50;23.07;;;14.47;;
11907;SDS011;6014;47.690;9.130;2022-12-07T02:47:20;22.47;;;12.93;;
11907;SDS011;6014;47.690;9.130;2022-12-07T02:49:51;23.23;;;13.93;;
11907;SDS011;6014;47.690;9.130;2022-12-07T02:52:20;25.17;;;14.37;;
11907;SDS011;6014;47.690;9.130;2022-12-07T02:54:51;26.97;;;14.13;;
11907;SDS011;6014;47.690;9.130;2022-12-07T02:57:26;24.50;;;14.10;;
11907;SDS011;6014;47.690;9.130;2022-12-07T03:00:18;24.40;;;13.07;;
11907;SDS011;6014;47.690;9.130;2022-12-07T03:02:50;26.67;;;14.97;;
11907;SDS011;6014;47.690;9.130;2022-12-07T03:05:37;23.17;;;13.20;;
11907;SDS011;6014;47.690;9.130;2022-12-07T03:08:21;24.33;;;13.93;;
11907;SDS011;6014;47.690;9.130;2022-12-07T03:10:58;24.63;;;13.80;;
11907;SDS011;6014;47.690;9.130;2022-12-07T03:13:32;20.97;;;12.93;;
11907;SDS011;6014;47.690;9.130;2022-12-07T03:16:10;27.93;;;15.00;;
11907;SDS011;6014;47.690;9.130;2022-12-07T03:18:43;23.40;;;14.17;;
11907;SDS011;6014;47.690;9.130;2022-12-07T03:21:17;23.03;;;13.50;;
11907;SDS011;6014;47.690;9.130;2022-12-07T03:23:51;23.57;;;14.07;;
11907;SDS011;6014;47.690;9.130;2022-12-07T03:26:28;24.27;;;14.10;;
11907;SDS011;6014;47.690;9.130;2022-12-07T03:29:00;24.20;;;14.07;;
11907;SDS011;6014;47.690;9.130;2022-12-07T03:31:34;24.30;;;12.77;;
11907;SDS011;6014;47.690;9.130;2022-12-07T03:34:08;23.67;;;14.07;;
11907;SDS011;6014;47.690;9.130;2022-12-07T03:36:43;25.00;;;14.13;;
11907;SDS011;6014;47.690;9.130;2022-12-07T03:39:17;26.97;;;14.03;;
11907;SDS011;6014;47.690;9.130;2022-12-07T03:41:52;23.80;;;13.40;;
11907;SDS011;6014;47.690;9.130;2022-12-07T03:44:21;24.60;;;13.90;;
11907;SDS011;6014;47.690;9.130;2022-12-07T03:46:57;25.77;;;13.73;;
11907;SDS011;6014;47.690;9.130;2022-12-07T03:49:31;19.27;;;10.63;;
11907;SDS011;6014;47.690;9.130;2022-12-07T03:52:07;23.07;;;13.90;;
11907;SDS011;6014;47.690;9.130;2022-12-07T03:54:43;24.10;;;12.93;;
11907;SDS011;6014;47.690;9.130;2022-12-07T03:57:16;23.50;;;13.70;;
11907;SDS011;6014;47.690;9.130;2022-12-07T03:59:47;22.90;;;12.90;;
11907;SDS011;6014;47.690;9.130;2022-12-07T04:02:17;21.90;;;12.20;;
11907;SDS011;6014;47.690;9.130;2022-12-07T04:04:46;26.50;;;14.53;;
11907;SDS011;6014;47.690;9.130;2022-12-07T04:09:52;23.50;;;13.90;;
11907;SDS011;6014;47.690;9.130;2022-12-07T04:12:21;25.47;;;14.33;;
11907;SDS011;6014;47.690;9.130;2022-12-07T04:14:50;25.90;;;12.87;;
11907;SDS011;6014;47.690;9.130;2022-12-07T04:17:19;21.07;;;13.87;;
11907;SDS011;6014;47.690;9.130;2022-12-07T04:19:48;23.97;;;13.70;;
11907;SDS011;6014;47.690;9.130;2022-12-07T04:22:16;23.30;;;13.23;;
11907;SDS011;6014;47.690;9.130;2022-12-07T04:24:45;23.57;;;12.60;;
11907;SDS011;6014;47.690;9.130;2022-12-07T04:27:13;24.07;;;13.23;;
11907;SDS011;6014;47.690;9.130;2022-12-07T04:29:41;24.23;;;13.10;;
11907;SDS011;6014;47.690;9.130;2022-12-07T04:32:10;27.40;;;14.47;;
11907;SDS011;6014;47.690;9.130;2022-12-07T04:34:39;25.77;;;12.90;;
11907;SDS011;6014;47.690;9.130;2022-12-07T04:37:08;24.70;;;12.93;;
11907;SDS011;6014;47.690;9.130;2022-12-07T04:39:36;25.27;;;14.23;;
11907;SDS011;6014;47.690;9.130;2022-12-07T04:42:05;24.23;;;13.40;;
11907;SDS011;6014;47.690;9.130;2022-12-07T04:44:33;22.37;;;13.50;;
11907;SDS011;6014;47.690;9.130;2022-12-07T04:47:02;27.83;;;13.03;;
11907;SDS011;6014;47.690;9.130;2022-12-07T04:49:30;23.40;;;13.60;;
11907;SDS011;6014;47.690;9.130;2022-12-07T04:52:00;23.83;;;13.43;;
11907;SDS011;6014;47.690;9.130;2022-12-07T04:54:29;25.43;;;13.73;;
11907;SDS011;6014;47.690;9.130;2022-12-07T04:56:57;26.50;;;13.47;;
11907;SDS011;6014;47.690;9.130;2022-12-07T04:59:26;23.23;;;13.90;;
11907;SDS011;6014;47.690;9.130;2022-12-07T05:01:54;24.03;;;14.67;;
11907;SDS011;6014;47.690;9.130;2022-12-07T05:04:22;24.97;;;14.17;;
11907;SDS011;6014;47.690;9.130;2022-12-07T05:06:51;24.03;;;14.10;;
11907;SDS011;6014;47.690;9.130;2022-12-07T05:09:21;25.27;;;14.33;;
11907;SDS011;6014;47.690;9.130;2022-12-07T05:11:49;26.30;;;15.00;;
11907;SDS011;6014;47.690;9.130;2022-12-07T05:14:18;23.70;;;14.10;;
11907;SDS011;6014;47.690;9.130;2022-12-07T05:16:48;26.70;;;13.83;;
11907;SDS011;6014;47.690;9.130;2022-12-07T05:19:18;29.43;;;14.70;;
11907;SDS011;6014;47.690;9.130;2022-12-07T05:21:46;28.30;;;13.83;;
11907;SDS011;6014;47.690;9.130;2022-12-07T05:24:15;28.37;;;15.07;;
11907;SDS011;6014;47.690;9.130;2022-12-07T05:26:46;27.97;;;15.70;;
11907;SDS011;6014;47.690;9.130;2022-12-07T05:29:15;30.97;;;13.97;;
11907;SDS011;6014;47.690;9.130;2022-12-07T05:31:44;25.10;;;14.33;;
11907;SDS011;6014;47.690;9.130;2022-12-07T05:34:13;25.50;;;15.77;;
11907;SDS011;6014;47.690;9.130;2022-12-07T05:36:42;28.57;;;15.03;;
11907;SDS011;6014;47.690;9.130;2022-12-07T05:39:10;27.20;;;15.33;;
11907;SDS011;6014;47.690;9.130;2022-12-07T05:41:38;25.90;;;14.83;;
11907;SDS011;6014;47.690;9.130;2022-12-07T05:44:26;27.13;;;14.00;;
11907;SDS011;6014;47.690;9.130;2022-12-07T05:46:54;26.43;;;14.90;;
11907;SDS011;6014;47.690;9.130;2022-12-07T05:49:23;28.97;;;15.13;;
11907;SDS011;6014;47.690;9.130;2022-12-07T05:51:51;26.90;;;14.93;;
11907;SDS011;6014;47.690;9.130;2022-12-07T05:54:20;23.93;;;13.30;;
11907;SDS011;6014;47.690;9.130;2022-12-07T05:56:48;26.93;;;14.43;;
11907;SDS011;6014;47.690;9.130;2022-12-07T05:59:17;27.30;;;15.03;;
11907;SDS011;6014;47.690;9.130;2022-12-07T06:01:52;26.57;;;13.53;;
11907;SDS011;6014;47.690;9.130;2022-12-07T06:04:22;28.73;;;14.80;;
11907;SDS011;6014;47.690;9.130;2022-12-07T06:06:52;23.63;;;14.03;;
11907;SDS011;6014;47.690;9.130;2022-12-07T06:09:22;25.07;;;13.67;;
11907;SDS011;6014;47.690;9.130;2022-12-07T06:11:54;23.33;;;12.97;;
11907;SDS011;6014;47.690;9.130;2022-12-07T06:14:40;23.93;;;14.23;;
11907;SDS011;6014;47.690;9.130;2022-12-07T06:17:11;22.17;;;13.80;;
11907;SDS011;6014;47.690;9.130;2022-12-07T06:19:40;25.60;;;14.13;;
11907;SDS011;6014;47.690;9.130;2022-12-07T06:22:08;31.33;;;15.83;;
11907;SDS011;6014;47.690;9.130;2022-12-07T06:24:38;30.13;;;14.90;;
11907;SDS011;6014;47.690;9.130;2022-12-07T06:27:07;24.93;;;15.40;;
11907;SDS011;6014;47.690;9.130;2022-12-07T06:29:40;26.57;;;14.13;;
11907;SDS011;6014;47.690;9.130;2022-12-07T06:32:11;28.63;;;15.07;;
11907;SDS011;6014;47.690;9.130;2022-12-07T06:34:43;25.60;;;14.80;;
11907;SDS011;6014;47.690;9.130;2022-12-07T06:37:18;29.27;;;15.60;;
11907;SDS011;6014;47.690;9.130;2022-12-07T06:39:48;26.13;;;14.07;;
11907;SDS011;6014;47.690;9.130;2022-12-07T06:42:16;26.63;;;14.57;;
11907;SDS011;6014;47.690;9.130;2022-12-07T06:44:45;24.87;;;15.13;;
11907;SDS011;6014;47.690;9.130;2022-12-07T06:47:15;27.07;;;15.17;;
11907;SDS011;6014;47.690;9.130;2022-12-07T06:50:04;26.60;;;14.93;;
11907;SDS011;6014;47.690;9.130;2022-12-07T06:52:34;22.37;;;13.67;;
11907;SDS011;6014;47.690;9.130;2022-12-07T06:55:02;23.67;;;14.13;;
11907;SDS011;6014;47.690;9.130;2022-12-07T06:57:32;25.50;;;14.67;;
11907;SDS011;6014;47.690;9.130;2022-12-07T07:00:00;23.87;;;13.03;;
11907;SDS011;6014;47.690;9.130;2022-12-07T07:02:32;26.73;;;14.97;;
11907;SDS011;6014;47.690;9.130;2022-12-07T07:05:00;26.10;;;14.43;;
11907;SDS011;6014;47.690;9.130;2022-12-07T07:07:29;26.00;;;14.90;;
11907;SDS011;6014;47.690;9.130;2022-12-07T07:10:07;23.83;;;14.60;;
11907;SDS011;6014;47.690;9.130;2022-12-07T07:12:36;26.27;;;15.17;;
11907;SDS011;6014;47.690;9.130;2022-12-07T07:15:04;23.00;;;12.73;;
11907;SDS011;6014;47.690;9.130;2022-12-07T07:17:35;24.83;;;14.13;;
11907;SDS011;6014;47.690;9.130;2022-12-07T07:20:04;25.13;;;14.57;;
11907;SDS011;6014;47.690;9.130;2022-12-07T07:22:34;23.33;;;14.23;;
11907;SDS011;6014;47.690;9.130;2022-12-07T07:25:02;28.30;;;14.97;;
11907;SDS011;6014;47.690;9.130;2022-12-07T07:27:32;26.20;;;14.33;;
11907;SDS011;6014;47.690;9.130;2022-12-07T07:30:00;28.80;;;15.13;;
11907;SDS011;6014;47.690;9.130;2022-12-07T07:32:29;24.13;;;13.20;;
11907;SDS011;6014;47.690;9.130;2022-12-07T07:34:59;26.20;;;14.30;;
11907;SDS011;6014;47.690;9.130;2022-12-07T07:37:30;24.60;;;13.23;;
11907;SDS011;6014;47.690;9.130;2022-12-07T07:39:58;24.57;;;13.40;;
11907;SDS011;6014;47.690;9.130;2022-12-07T07:42:27;22.70;;;13.13;;
11907;SDS011;6014;47.690;9.130;2022-12-07T07:44:55;24.57;;;14.83;;
11907;SDS011;6014;47.690;9.130;2022-12-07T07:47:24;25.07;;;14.60;;
11907;SDS011;6014;47.690;9.130;2022-12-07T07:49:52;26.20;;;13.60;;
11907;SDS011;6014;47.690;9.130;2022-12-07T07:52:22;27.17;;;13.57;;
11907;SDS011;6014;47.690;9.130;2022-12-07T07:54:51;21.53;;;13.53;;
11907;SDS011;6014;47.690;9.130;2022-12-07T07:57:19;22.03;;;12.70;;
11907;SDS011;6014;47.690;9.130;2022-12-07T07:59:48;27.87;;;16.13;;
11907;SDS011;6014;47.690;9.130;2022-12-07T08:02:17;29.43;;;16.13;;
11907;SDS011;6014;47.690;9.130;2022-12-07T08:04:47;28.47;;;18.33;;
11907;SDS011;6014;47.690;9.130;2022-12-07T08:07:15;26.43;;;15.40;;
11907;SDS011;6014;47.690;9.130;2022-12-07T08:09:45;29.07;;;15.67;;
11907;SDS011;6014;47.690;9.130;2022-12-07T08:12:13;23.27;;;13.77;;
11907;SDS011;6014;47.690;9.130;2022-12-07T08:14:42;22.63;;;12.90;;
11907;SDS011;6014;47.690;9.130;2022-12-07T08:17:10;22.20;;;12.70;;
11907;SDS011;6014;47.690;9.130;2022-12-07T08:19:38;20.70;;;12.63;;
11907;SDS011;6014;47.690;9.130;2022-12-07T08:22:07;22.50;;;13.30;;
11907;SDS011;6014;47.690;9.130;2022-12-07T08:24:35;22.10;;;13.03;;
11907;SDS011;6014;47.690;9.130;2022-12-07T08:27:05;20.77;;;12.57;;
11907;SDS011;6014;47.690;9.130;2022-12-07T08:29:33;22.50;;;12.80;;
11907;SDS011;6014;47.690;9.130;2022-12-07T08:32:02;20.00;;;12.27;;
11907;SDS011;6014;47.690;9.130;2022-12-07T08:34:35;21.70;;;11.97;;
11907;SDS011;6014;47.690;9.130;2022-12-07T08:37:04;21.53;;;13.17;;
11907;SDS011;6014;47.690;9.130;2022-12-07T08:39:32;20.60;;;12.50;;
11907;SDS011;6014;47.690;9.130;2022-12-07T08:42:01;23.90;;;12.97;;
11907;SDS011;6014;47.690;9.130;2022-12-07T08:44:30;22.10;;;13.07;;
11907;SDS011;6014;47.690;9.130;2022-12-07T08:47:00;23.47;;;12.60;;
11907;SDS011;6014;47.690;9.130;2022-12-07T08:49:34;22.53;;;13.60;;
11907;SDS011;6014;47.690;9.130;2022-12-07T08:52:06;28.57;;;16.47;;
11907;SDS011;6014;47.690;9.130;2022-12-07T08:54:34;23.90;;;13.93;;
11907;SDS011;6014;47.690;9.130;2022-12-07T08:57:04;22.53;;;13.53;;
11907;SDS011;6014;47.690;9.130;2022-12-07T08:59:35;22.60;;;13.10;;
11907;SDS011;6014;47.690;9.130;2022-12-07T09:02:05;21.40;;;12.13;;
11907;SDS011;6014;47.690;9.130;2022-12-07T09:04:33;21.47;;;12.10;;
11907;SDS011;6014;47.690;9.130;2022-12-07T09:07:02;22.03;;;12.80;;
11907;SDS011;6014;47.690;9.130;2022-12-07T09:09:30;20.03;;;12.07;;
11907;SDS011;6014;47.690;9.130;2022-12-07T09:11:58;18.43;;;11.20;;
11907;SDS011;6014;47.690;9.130;2022-12-07T09:14:27;20.77;;;10.73;;
11907;SDS011;6014;47.690;9.130;2022-12-07T09:17:01;19.50;;;12.27;;
11907;SDS011;6014;47.690;9.130;2022-12-07T09:19:33;21.20;;;11.30;;
11907;SDS011;6014;47.690;9.130;2022-12-07T09:22:02;19.60;;;12.03;;
11907;SDS011;6014;47.690;9.130;2022-12-07T09:24:31;22.55;;;13.10;;
11907;SDS011;6014;47.690;9.130;2022-12-07T09:27:00;29.97;;;18.80;;
11907;SDS011;6014;47.690;9.130;2022-12-07T09:29:28;24.00;;;12.43;;
11907;SDS011;6014;47.690;9.130;2022-12-07T09:31:57;31.43;;;18.07;;
11907;SDS011;6014;47.690;9.130;2022-12-07T09:34:26;24.63;;;15.27;;
11907;SDS011;6014;47.690;9.130;2022-12-07T09:36:58;21.47;;;11.53;;
11907;SDS011;6014;47.690;9.130;2022-12-07T09:39:29;24.17;;;12.37;;
11907;SDS011;6014;47.690;9.130;2022-12-07T09:41:57;21.57;;;13.27;;
11907;SDS011;6014;47.690;9.130;2022-12-07T09:44:30;23.90;;;13.87;;
11907;SDS011;6014;47.690;9.130;2022-12-07T09:47:00;24.93;;;13.40;;
11907;SDS011;6014;47.690;9.130;2022-12-07T09:49:31;23.57;;;13.10;;
11907;SDS011;6014;47.690;9.130;2022-12-07T09:52:00;22.00;;;13.00;;
11907;SDS011;6014;47.690;9.130;2022-12-07T09:54:45;21.43;;;11.80;;
11907;SDS011;6014;47.690;9.130;2022-12-07T09:57:16;19.67;;;11.83;;
11907;SDS011;6014;47.690;9.130;2022-12-07T09:59:45;19.77;;;11.20;;
11907;SDS011;6014;47.690;9.130;2022-12-07T10:02:23;17.23;;;10.23;;
11907;SDS011;6014;47.690;9.130;2022-12-07T10:05:02;17.93;;;10.07;;
11907;SDS011;6014;47.690;9.130;2022-12-07T10:07:34;18.00;;;9.93;;
11907;SDS011;6014;47.690;9.130;2022-12-07T10:10:03;18.10;;;9.50;;
11907;SDS011;6014;47.690;9.130;2022-12-07T10:12:44;15.57;;;9.07;;
11907;SDS011;6014;47.690;9.130;2022-12-07T10:15:23;14.77;;;9.00;;
11907;SDS011;6014;47.690;9.130;2022-12-07T10:18:16;15.33;;;9.00;;
11907;SDS011;6014;47.690;9.130;2022-12-07T10:20:49;16.60;;;9.27;;
11907;SDS011;6014;47.690;9.130;2022-12-07T10:23:40;14.60;;;8.13;;
11907;SDS011;6014;47.690;9.130;2022-12-07T10:26:20;14.70;;;8.80;;
11907;SDS011;6014;47.690;9.130;2022-12-07T10:28:59;15.70;;;8.97;;
11907;SDS011;6014;47.690;9.130;2022-12-07T10:31:30;15.37;;;8.33;;
11907;SDS011;6014;47.690;9.130;2022-12-07T10:33:59;16.70;;;9.33;;
11907;SDS011;6014;47.690;9.130;2022-12-07T10:36:34;15.17;;;9.57;;
11907;SDS011;6014;47.690;9.130;2022-12-07T10:39:10;14.90;;;8.33;;
11907;SDS011;6014;47.690;9.130;2022-12-07T10:41:52;16.20;;;8.53;;
11907;SDS011;6014;47.690;9.130;2022-12-07T10:44:24;15.33;;;8.33;;
11907;SDS011;6014;47.690;9.130;2022-12-07T10:47:01;14.53;;;8.37;;
11907;SDS011;6014;47.690;9.130;2022-12-07T10:53:23;17.67;;;9.60;;
11907;SDS011;6014;47.690;9.130;2022-12-07T10:56:19;15.53;;;8.47;;
11907;SDS011;6014;47.690;9.130;2022-12-07T10:59:27;17.90;;;9.67;;
11907;SDS011;6014;47.690;9.130;2022-12-07T11:02:12;17.77;;;9.87;;
11907;SDS011;6014;47.690;9.130;2022-12-07T11:04:59;18.20;;;10.30;;
11907;SDS011;6014;47.690;9.130;2022-12-07T11:07:39;18.67;;;10.57;;
11907;SDS011;6014;47.690;9.130;2022-12-07T11:10:24;17.23;;;10.43;;
11907;SDS011;6014;47.690;9.130;2022-12-07T11:13:04;18.20;;;10.57;;
11907;SDS011;6014;47.690;9.130;2022-12-07T11:18:57;16.87;;;8.87;;
11907;SDS011;6014;47.690;9.130;2022-12-07T11:21:55;14.80;;;9.57;;
11907;SDS011;6014;47.690;9.130;2022-12-07T11:24:27;18.00;;;8.90;;
11907;SDS011;6014;47.690;9.130;2022-12-07T11:27:08;18.15;;;8.43;;
11907;SDS011;6014;47.690;9.130;2022-12-07T11:29:49;12.70;;;7.03;;
11907;SDS011;6014;47.690;9.130;2022-12-07T11:32:38;14.97;;;8.27;;
11907;SDS011;6014;47.690;9.130;2022-12-07T11:35:35;13.32;;;7.47;;
11907;SDS011;6014;47.690;9.130;2022-12-07T11:38:12;14.70;;;7.90;;
11907;SDS011;6014;47.690;9.130;2022-12-07T11:40:53;12.47;;;7.10;;
11907;SDS011;6014;47.690;9.130;2022-12-07T11:43:50;11.50;;;6.87;;
11907;SDS011;6014;47.690;9.130;2022-12-07T11:46:24;10.70;;;6.07;;
11907;SDS011;6014;47.690;9.130;2022-12-07T11:48:58;10.55;;;6.40;;
11907;SDS011;6014;47.690;9.130;2022-12-07T11:51:38;10.77;;;6.87;;
11907;SDS011;6014;47.690;9.130;2022-12-07T11:54:11;9.50;;;6.17;;
11907;SDS011;6014;47.690;9.130;2022-12-07T11:56:43;11.90;;;6.67;;
11907;SDS011;6014;47.690;9.130;2022-12-07T11:59:17;10.52;;;6.60;;
11907;SDS011;6014;47.690;9.130;2022-12-07T12:01:53;12.32;;;7.50;;
11907;SDS011;6014;47.690;9.130;2022-12-07T12:04:32;15.38;;;8.38;;
11907;SDS011;6014;47.690;9.130;2022-12-07T12:07:14;13.80;;;7.68;;
11907;SDS011;6014;47.690;9.130;2022-12-07T12:10:14;10.52;;;5.97;;
11907;SDS011;6014;47.690;9.130;2022-12-07T12:12:57;12.48;;;6.70;;
11907;SDS011;6014;47.690;9.130;2022-12-07T12:16:21;10.43;;;6.43;;
11907;SDS011;6014;47.690;9.130;2022-12-07T12:19:19;10.70;;;6.45;;
11907;SDS011;6014;47.690;9.130;2022-12-07T12:21:56;10.00;;;5.88;;
11907;SDS011;6014;47.690;9.130;2022-12-07T12:24:33;10.82;;;6.05;;
11907;SDS011;6014;47.690;9.130;2022-12-07T12:27:03;10.55;;;6.07;;
11907;SDS011;6014;47.690;9.130;2022-12-07T12:29:35;11.00;;;6.15;;
11907;SDS011;6014;47.690;9.130;2022-12-07T12:32:11;10.35;;;6.35;;
11907;SDS011;6014;47.690;9.130;2022-12-07T12:34:58;10.75;;;6.15;;
11907;SDS011;6014;47.690;9.130;2022-12-07T12:37:45;10.38;;;5.80;;
11907;SDS011;6014;47.690;9.130;2022-12-07T12:55:45;11.45;;;5.60;;
11907;SDS011;6014;47.690;9.130;2022-12-07T13:01:54;14.40;;;9.13;;
11907;SDS011;6014;47.690;9.130;2022-12-07T13:04:25;13.23;;;8.57;;
11907;SDS011;6014;47.690;9.130;2022-12-07T13:10:34;12.02;;;6.38;;
11907;SDS011;6014;47.690;9.130;2022-12-07T13:22:38;10.80;;;6.70;;
11907;SDS011;6014;47.690;9.130;2022-12-07T13:25:11;12.52;;;6.90;;
11907;SDS011;6014;47.690;9.130;2022-12-07T13:27:59;10.05;;;6.68;;
11907;SDS011;6014;47.690;9.130;2022-12-07T13:30:34;11.68;;;7.07;;
11907;SDS011;6014;47.690;9.130;2022-12-07T13:33:15;10.38;;;5.93;;
11907;SDS011;6014;47.690;9.130;2022-12-07T13:35:46;9.20;;;5.78;;
11907;SDS011;6014;47.690;9.130;2022-12-07T13:38:22;11.88;;;7.60;;
11907;SDS011;6014;47.690;9.130;2022-12-07T13:41:01;11.50;;;6.20;;
11907;SDS011;6014;47.690;9.130;2022-12-07T13:43:44;64.65;;;29.65;;
11907;SDS011;6014;47.690;9.130;2022-12-07T13:46:17;66.78;;;34.75;;
11907;SDS011;6014;47.690;9.130;2022-12-07T13:48:51;14.10;;;8.55;;
11907;SDS011;6014;47.690;9.130;2022-12-07T13:51:22;17.50;;;10.67;;
11907;SDS011;6014;47.690;9.130;2022-12-07T13:53:56;11.13;;;7.32;;
11907;SDS011;6014;47.690;9.130;2022-12-07T13:56:31;12.20;;;7.43;;
11907;SDS011;6014;47.690;9.130;2022-12-07T13:59:02;12.70;;;6.87;;
11907;SDS011;6014;47.690;9.130;2022-12-07T14:01:35;9.40;;;6.03;;
11907;SDS011;6014;47.690;9.130;2022-12-07T14:04:24;10.77;;;6.60;;
11907;SDS011;6014;47.690;9.130;2022-12-07T14:07:00;10.43;;;6.22;;
11907;SDS011;6014;47.690;9.130;2022-12-07T14:09:55;9.67;;;5.53;;
11907;SDS011;6014;47.690;9.130;2022-12-07T14:12:26;10.87;;;5.83;;
11907;SDS011;6014;47.690;9.130;2022-12-07T14:14:56;11.00;;;6.63;;
11907;SDS011;6014;47.690;9.130;2022-12-07T14:17:29;13.02;;;8.00;;
11907;SDS011;6014;47.690;9.130;2022-12-07T14:19:58;11.98;;;7.63;;
11907;SDS011;6014;47.690;9.130;2022-12-07T14:22:29;12.25;;;6.18;;
11907;SDS011;6014;47.690;9.130;2022-12-07T14:25:13;14.50;;;6.82;;
11907;SDS011;6014;47.690;9.130;2022-12-07T14:27:52;12.05;;;6.97;;
11907;SDS011;6014;47.690;9.130;2022-12-07T14:30:24;14.57;;;7.27;;
11907;SDS011;6014;47.690;9.130;2022-12-07T14:32:57;33.33;;;18.33;;
11907;SDS011;6014;47.690;9.130;2022-12-07T14:35:30;14.83;;;8.57;;
11907;SDS011;6014;47.690;9.130;2022-12-07T14:37:59;16.10;;;9.52;;
11907;SDS011;6014;47.690;9.130;2022-12-07T14:40:30;19.42;;;11.30;;
11907;SDS011;6014;47.690;9.130;2022-12-07T14:43:00;14.33;;;8.40;;
11907;SDS011;6014;47.690;9.130;2022-12-07T14:45:30;12.55;;;7.18;;
11907;SDS011;6014;47.690;9.130;2022-12-07T14:47:59;17.52;;;10.13;;
11907;SDS011;6014;47.690;9.130;2022-12-07T14:50:49;13.53;;;8.67;;
11907;SDS011;6014;47.690;9.130;2022-12-07T14:53:44;12.82;;;7.80;;
11907;SDS011;6014;47.690;9.130;2022-12-07T14:56:24;12.40;;;7.37;;
11907;SDS011;6014;47.690;9.130;2022-12-07T14:58:54;12.40;;;7.03;;
11907;SDS011;6014;47.690;9.130;2022-12-07T15:01:22;11.30;;;7.00;;
11907;SDS011;6014;47.690;9.130;2022-12-07T15:03:50;11.83;;;6.57;;
11907;SDS011;6014;47.690;9.130;2022-12-07T15:06:19;10.57;;;6.53;;
11907;SDS011;6014;47.690;9.130;2022-12-07T15:08:47;10.63;;;6.57;;
11907;SDS011;6014;47.690;9.130;2022-12-07T15:11:16;12.38;;;7.18;;
11907;SDS011;6014;47.690;9.130;2022-12-07T15:13:47;10.87;;;6.73;;
11907;SDS011;6014;47.690;9.130;2022-12-07T15:16:32;11.75;;;6.75;;
11907;SDS011;6014;47.690;9.130;2022-12-07T15:19:22;12.75;;;7.57;;
11907;SDS011;6014;47.690;9.130;2022-12-07T15:21:54;13.52;;;7.05;;
11907;SDS011;6014;47.690;9.130;2022-12-07T15:24:23;10.35;;;6.75;;
11907;SDS011;6014;47.690;9.130;2022-12-07T15:26:52;12.80;;;7.05;;
11907;SDS011;6014;47.690;9.130;2022-12-07T15:29:22;12.30;;;6.20;;
11907;SDS011;6014;47.690;9.130;2022-12-07T15:31:50;17.93;;;10.97;;
11907;SDS011;6014;47.690;9.130;2022-12-07T15:34:23;22.58;;;12.45;;
11907;SDS011;6014;47.690;9.130;2022-12-07T15:36:52;14.17;;;8.60;;
11907;SDS011;6014;47.690;9.130;2022-12-07T15:39:21;11.70;;;6.50;;
11907;SDS011;6014;47.690;9.130;2022-12-07T15:41:50;15.03;;;9.50;;
11907;SDS011;6014;47.690;9.130;2022-12-07T15:44:18;14.67;;;8.50;;
11907;SDS011;6014;47.690;9.130;2022-12-07T15:47:05;20.10;;;8.10;;
11907;SDS011;6014;47.690;9.130;2022-12-07T15:49:34;12.47;;;7.83;;
11907;SDS011;6014;47.690;9.130;2022-12-07T15:52:02;20.33;;;10.77;;
11907;SDS011;6014;47.690;9.130;2022-12-07T15:54:31;16.30;;;9.93;;
11907;SDS011;6014;47.690;9.130;2022-12-07T15:57:00;17.87;;;10.57;;
11907;SDS011;6014;47.690;9.130;2022-12-07T15:59:28;16.63;;;9.63;;